sensor_id;sensor_type;location;lat;lon;timestamp;temperature;humidity
58582;DHT22;44361;51.476;5.700;2024-03-02T00:00:21;8.90;98.80
58582;DHT22;44361;51.476;5.700;2024-03-02T00:02:50;8.90;98.50
58582;DHT22;44361;51.476;5.700;2024-03-02T00:05:21;8.90;98.40
58582;DHT22;44361;51.476;5.700;2024-03-02T00:07:54;9.00;98.40
58582;DHT22;44361;51.476;5.700;2024-03-02T00:10:30;9.00;98.20
58582;DHT22;44361;51.476;5.700;2024-03-02T00:13:00;9.00;98.30
58582;DHT22;44361;51.476;5.700;2024-03-02T00:15:46;9.00;98.50
58582;DHT22;44361;51.476;5.700;2024-03-02T00:18:14;9.10;98.30
58582;DHT22;44361;51.476;5.700;2024-03-02T00:20:41;9.10;98.10
58582;DHT22;44361;51.476;5.700;2024-03-02T00:23:09;9.20;98.20
58582;DHT22;44361;51.476;5.700;2024-03-02T00:25:51;9.20;98.10
58582;DHT22;44361;51.476;5.700;2024-03-02T00:31:06;9.30;98.00
58582;DHT22;44361;51.476;5.700;2024-03-02T00:33:43;9.30;98.40
58582;DHT22;44361;51.476;5.700;2024-03-02T00:36:10;9.30;98.20
58582;DHT22;44361;51.476;5.700;2024-03-02T00:38:46;9.30;98.20
58582;DHT22;44361;51.476;5.700;2024-03-02T00:41:31;9.30;98.40
58582;DHT22;44361;51.476;5.700;2024-03-02T00:44:04;9.30;99.40
58582;DHT22;44361;51.476;5.700;2024-03-02T00:46:38;9.00;99.90
58582;DHT22;44361;51.476;5.700;2024-03-02T00:49:05;8.60;99.90
58582;DHT22;44361;51.476;5.700;2024-03-02T00:51:33;8.40;99.90
58582;DHT22;44361;51.476;5.700;2024-03-02T00:54:02;8.30;99.90
58582;DHT22;44361;51.476;5.700;2024-03-02T00:56:30;8.20;99.90
58582;DHT22;44361;51.476;5.700;2024-03-02T00:58:56;8.10;99.90
58582;DHT22;44361;51.476;5.700;2024-03-02T01:01:22;8.10;99.90
58582;DHT22;44361;51.476;5.700;2024-03-02T01:03:48;8.10;99.90
58582;DHT22;44361;51.476;5.700;2024-03-02T01:06:14;8.00;99.90
58582;DHT22;44361;51.476;5.700;2024-03-02T01:08:40;8.00;99.90
58582;DHT22;44361;51.476;5.700;2024-03-02T01:11:06;7.90;99.90
58582;DHT22;44361;51.476;5.700;2024-03-02T01:13:32;7.80;99.90
58582;DHT22;44361;51.476;5.700;2024-03-02T01:15:57;7.80;99.90
58582;DHT22;44361;51.476;5.700;2024-03-02T01:18:24;7.80;99.90
58582;DHT22;44361;51.476;5.700;2024-03-02T01:20:49;7.70;99.90
58582;DHT22;44361;51.476;5.700;2024-03-02T01:23:20;7.70;99.90
58582;DHT22;44361;51.476;5.700;2024-03-02T01:25:50;7.70;99.90
58582;DHT22;44361;51.476;5.700;2024-03-02T01:28:15;7.70;99.90
58582;DHT22;44361;51.476;5.700;2024-03-02T01:30:41;7.70;99.90
58582;DHT22;44361;51.476;5.700;2024-03-02T01:33:07;7.70;99.90
58582;DHT22;44361;51.476;5.700;2024-03-02T01:35:33;7.70;99.90
58582;DHT22;44361;51.476;5.700;2024-03-02T01:38:00;7.70;99.90
58582;DHT22;44361;51.476;5.700;2024-03-02T01:40:26;7.70;99.90
58582;DHT22;44361;51.476;5.700;2024-03-02T01:42:52;7.70;99.90
58582;DHT22;44361;51.476;5.700;2024-03-02T01:45:19;7.70;99.90
58582;DHT22;44361;51.476;5.700;2024-03-02T01:47:45;7.60;99.90
58582;DHT22;44361;51.476;5.700;2024-03-02T01:50:11;7.60;99.90
58582;DHT22;44361;51.476;5.700;2024-03-02T01:52:37;7.60;99.90
58582;DHT22;44361;51.476;5.700;2024-03-02T01:55:03;7.60;99.90
58582;DHT22;44361;51.476;5.700;2024-03-02T01:57:33;7.60;99.90
58582;DHT22;44361;51.476;5.700;2024-03-02T01:59:59;7.60;99.90
58582;DHT22;44361;51.476;5.700;2024-03-02T02:02:25;7.50;99.90
58582;DHT22;44361;51.476;5.700;2024-03-02T02:04:51;7.50;99.90
58582;DHT22;44361;51.476;5.700;2024-03-02T02:07:16;7.50;99.90
58582;DHT22;44361;51.476;5.700;2024-03-02T02:09:43;7.50;99.90
58582;DHT22;44361;51.476;5.700;2024-03-02T02:12:09;7.60;99.90
58582;DHT22;44361;51.476;5.700;2024-03-02T02:14:36;7.60;99.90
58582;DHT22;44361;51.476;5.700;2024-03-02T02:17:02;7.50;99.90
58582;DHT22;44361;51.476;5.700;2024-03-02T02:19:27;7.50;99.90
58582;DHT22;44361;51.476;5.700;2024-03-02T02:21:54;7.50;99.90
58582;DHT22;44361;51.476;5.700;2024-03-02T02:24:19;7.50;99.90
58582;DHT22;44361;51.476;5.700;2024-03-02T02:26:45;7.50;99.90
58582;DHT22;44361;51.476;5.700;2024-03-02T02:29:10;7.40;99.90
58582;DHT22;44361;51.476;5.700;2024-03-02T02:31:39;7.40;99.90
58582;DHT22;44361;51.476;5.700;2024-03-02T02:34:05;7.40;99.90
58582;DHT22;44361;51.476;5.700;2024-03-02T02:36:36;7.40;99.90
58582;DHT22;44361;51.476;5.700;2024-03-02T02:39:03;7.40;99.90
58582;DHT22;44361;51.476;5.700;2024-03-02T02:41:30;7.40;99.90
58582;DHT22;44361;51.476;5.700;2024-03-02T02:43:56;7.40;99.90
58582;DHT22;44361;51.476;5.700;2024-03-02T02:46:21;7.40;99.90
58582;DHT22;44361;51.476;5.700;2024-03-02T02:48:47;7.40;99.90
58582;DHT22;44361;51.476;5.700;2024-03-02T02:51:12;7.40;99.90
58582;DHT22;44361;51.476;5.700;2024-03-02T02:53:38;7.40;99.90
58582;DHT22;44361;51.476;5.700;2024-03-02T02:56:06;7.40;99.90
58582;DHT22;44361;51.476;5.700;2024-03-02T02:58:32;7.40;99.90
58582;DHT22;44361;51.476;5.700;2024-03-02T03:00:57;7.40;99.90
58582;DHT22;44361;51.476;5.700;2024-03-02T03:03:23;7.40;99.90
58582;DHT22;44361;51.476;5.700;2024-03-02T03:05:49;7.40;99.90
58582;DHT22;44361;51.476;5.700;2024-03-02T03:08:14;7.40;99.90
58582;DHT22;44361;51.476;5.700;2024-03-02T03:10:41;7.40;99.90
58582;DHT22;44361;51.476;5.700;2024-03-02T03:13:07;7.30;99.90
58582;DHT22;44361;51.476;5.700;2024-03-02T03:15:36;7.30;99.90
58582;DHT22;44361;51.476;5.700;2024-03-02T03:18:02;7.40;99.90
58582;DHT22;44361;51.476;5.700;2024-03-02T03:20:29;7.30;99.90
58582;DHT22;44361;51.476;5.700;2024-03-02T03:22:55;7.30;99.90
58582;DHT22;44361;51.476;5.700;2024-03-02T03:25:21;7.30;99.90
58582;DHT22;44361;51.476;5.700;2024-03-02T03:27:46;7.30;99.90
58582;DHT22;44361;51.476;5.700;2024-03-02T03:30:12;7.30;99.90
58582;DHT22;44361;51.476;5.700;2024-03-02T03:32:38;7.30;99.90
58582;DHT22;44361;51.476;5.700;2024-03-02T03:35:04;7.40;99.90
58582;DHT22;44361;51.476;5.700;2024-03-02T03:37:30;7.40;99.90
58582;DHT22;44361;51.476;5.700;2024-03-02T03:39:59;7.40;99.90
58582;DHT22;44361;51.476;5.700;2024-03-02T03:42:24;7.40;99.90
58582;DHT22;44361;51.476;5.700;2024-03-02T03:44:50;7.40;99.90
58582;DHT22;44361;51.476;5.700;2024-03-02T03:47:15;7.30;99.90
58582;DHT22;44361;51.476;5.700;2024-03-02T03:49:41;7.30;99.90
58582;DHT22;44361;51.476;5.700;2024-03-02T03:52:06;7.30;99.90
58582;DHT22;44361;51.476;5.700;2024-03-02T03:54:32;7.40;99.90
58582;DHT22;44361;51.476;5.700;2024-03-02T03:56:58;7.40;99.90
58582;DHT22;44361;51.476;5.700;2024-03-02T03:59:23;7.30;99.90
58582;DHT22;44361;51.476;5.700;2024-03-02T04:01:49;7.30;99.90
58582;DHT22;44361;51.476;5.700;2024-03-02T04:04:14;7.20;99.90
58582;DHT22;44361;51.476;5.700;2024-03-02T04:06:40;7.30;99.90
58582;DHT22;44361;51.476;5.700;2024-03-02T04:09:06;7.30;99.90
58582;DHT22;44361;51.476;5.700;2024-03-02T04:11:31;7.20;99.90
58582;DHT22;44361;51.476;5.700;2024-03-02T04:13:57;7.20;99.90
58582;DHT22;44361;51.476;5.700;2024-03-02T04:16:22;7.20;99.90
58582;DHT22;44361;51.476;5.700;2024-03-02T04:18:48;7.10;99.90
58582;DHT22;44361;51.476;5.700;2024-03-02T04:21:14;7.10;99.90
58582;DHT22;44361;51.476;5.700;2024-03-02T04:23:39;7.10;99.90
58582;DHT22;44361;51.476;5.700;2024-03-02T04:26:05;7.10;99.90
58582;DHT22;44361;51.476;5.700;2024-03-02T04:28:30;7.00;99.90
58582;DHT22;44361;51.476;5.700;2024-03-02T04:30:56;6.90;99.90
58582;DHT22;44361;51.476;5.700;2024-03-02T04:33:21;6.80;99.90
58582;DHT22;44361;51.476;5.700;2024-03-02T04:35:47;6.80;99.90
58582;DHT22;44361;51.476;5.700;2024-03-02T04:38:12;6.70;99.90
58582;DHT22;44361;51.476;5.700;2024-03-02T04:40:38;6.70;99.90
58582;DHT22;44361;51.476;5.700;2024-03-02T04:43:03;6.60;99.90
58582;DHT22;44361;51.476;5.700;2024-03-02T04:45:29;6.60;99.90
58582;DHT22;44361;51.476;5.700;2024-03-02T04:47:55;6.60;99.90
58582;DHT22;44361;51.476;5.700;2024-03-02T04:50:20;6.60;99.90
58582;DHT22;44361;51.476;5.700;2024-03-02T04:52:46;6.60;99.90
58582;DHT22;44361;51.476;5.700;2024-03-02T04:55:11;6.60;99.90
58582;DHT22;44361;51.476;5.700;2024-03-02T04:57:52;6.60;99.90
58582;DHT22;44361;51.476;5.700;2024-03-02T05:00:20;6.60;99.90
58582;DHT22;44361;51.476;5.700;2024-03-02T05:02:46;6.60;99.90
58582;DHT22;44361;51.476;5.700;2024-03-02T05:05:12;6.70;99.90
58582;DHT22;44361;51.476;5.700;2024-03-02T05:07:37;6.70;99.90
58582;DHT22;44361;51.476;5.700;2024-03-02T05:10:03;6.70;99.90
58582;DHT22;44361;51.476;5.700;2024-03-02T05:12:29;6.70;99.90
58582;DHT22;44361;51.476;5.700;2024-03-02T05:15:15;6.70;99.90
58582;DHT22;44361;51.476;5.700;2024-03-02T05:17:41;6.80;99.90
58582;DHT22;44361;51.476;5.700;2024-03-02T05:20:10;6.80;99.90
58582;DHT22;44361;51.476;5.700;2024-03-02T05:22:36;6.80;99.90
58582;DHT22;44361;51.476;5.700;2024-03-02T05:25:03;6.70;99.90
58582;DHT22;44361;51.476;5.700;2024-03-02T05:27:28;6.70;99.90
58582;DHT22;44361;51.476;5.700;2024-03-02T05:29:54;6.60;99.90
58582;DHT22;44361;51.476;5.700;2024-03-02T05:32:20;6.50;99.90
58582;DHT22;44361;51.476;5.700;2024-03-02T05:34:45;6.50;99.90
58582;DHT22;44361;51.476;5.700;2024-03-02T05:37:11;6.40;99.90
58582;DHT22;44361;51.476;5.700;2024-03-02T05:39:36;6.30;99.90
58582;DHT22;44361;51.476;5.700;2024-03-02T05:42:02;6.20;99.90
58582;DHT22;44361;51.476;5.700;2024-03-02T05:44:28;6.20;99.90
58582;DHT22;44361;51.476;5.700;2024-03-02T05:46:55;6.20;99.90
58582;DHT22;44361;51.476;5.700;2024-03-02T05:49:20;6.20;99.90
58582;DHT22;44361;51.476;5.700;2024-03-02T05:51:46;6.30;99.90
58582;DHT22;44361;51.476;5.700;2024-03-02T05:54:11;6.40;99.90
58582;DHT22;44361;51.476;5.700;2024-03-02T05:56:37;6.40;99.90
58582;DHT22;44361;51.476;5.700;2024-03-02T05:59:03;6.40;99.90
58582;DHT22;44361;51.476;5.700;2024-03-02T06:01:42;6.50;99.90
58582;DHT22;44361;51.476;5.700;2024-03-02T06:04:09;6.50;99.90
58582;DHT22;44361;51.476;5.700;2024-03-02T06:06:34;6.50;99.90
58582;DHT22;44361;51.476;5.700;2024-03-02T06:09:01;6.60;99.90
58582;DHT22;44361;51.476;5.700;2024-03-02T06:11:28;6.50;99.90
58582;DHT22;44361;51.476;5.700;2024-03-02T06:13:53;6.50;99.90
58582;DHT22;44361;51.476;5.700;2024-03-02T06:16:19;6.50;99.90
58582;DHT22;44361;51.476;5.700;2024-03-02T06:18:44;6.50;99.90
58582;DHT22;44361;51.476;5.700;2024-03-02T06:21:10;6.50;99.90
58582;DHT22;44361;51.476;5.700;2024-03-02T06:23:35;6.60;99.90
58582;DHT22;44361;51.476;5.700;2024-03-02T06:26:01;6.50;99.90
58582;DHT22;44361;51.476;5.700;2024-03-02T06:28:28;6.50;99.90
58582;DHT22;44361;51.476;5.700;2024-03-02T06:30:53;6.40;99.90
58582;DHT22;44361;51.476;5.700;2024-03-02T06:33:19;6.30;99.90
58582;DHT22;44361;51.476;5.700;2024-03-02T06:35:44;6.20;99.90
58582;DHT22;44361;51.476;5.700;2024-03-02T06:38:10;6.10;99.90
58582;DHT22;44361;51.476;5.700;2024-03-02T06:40:35;6.10;99.90
58582;DHT22;44361;51.476;5.700;2024-03-02T06:43:03;6.10;99.90
58582;DHT22;44361;51.476;5.700;2024-03-02T06:45:29;6.00;99.90
58582;DHT22;44361;51.476;5.700;2024-03-02T06:47:56;6.00;99.90
58582;DHT22;44361;51.476;5.700;2024-03-02T06:50:21;6.00;99.90
58582;DHT22;44361;51.476;5.700;2024-03-02T06:52:47;5.90;99.90
58582;DHT22;44361;51.476;5.700;2024-03-02T06:55:13;6.00;99.90
58582;DHT22;44361;51.476;5.700;2024-03-02T06:57:38;5.90;99.90
58582;DHT22;44361;51.476;5.700;2024-03-02T07:00:04;6.00;99.90
58582;DHT22;44361;51.476;5.700;2024-03-02T07:02:30;6.00;99.90
58582;DHT22;44361;51.476;5.700;2024-03-02T07:04:56;6.00;99.90
58582;DHT22;44361;51.476;5.700;2024-03-02T07:07:21;6.10;99.90
58582;DHT22;44361;51.476;5.700;2024-03-02T07:09:47;6.10;99.90
58582;DHT22;44361;51.476;5.700;2024-03-02T07:12:13;6.10;99.90
58582;DHT22;44361;51.476;5.700;2024-03-02T07:14:39;6.20;99.90
58582;DHT22;44361;51.476;5.700;2024-03-02T07:17:23;6.20;99.90
58582;DHT22;44361;51.476;5.700;2024-03-02T07:19:49;6.30;99.90
58582;DHT22;44361;51.476;5.700;2024-03-02T07:22:14;6.50;99.90
58582;DHT22;44361;51.476;5.700;2024-03-02T07:24:43;6.60;99.90
58582;DHT22;44361;51.476;5.700;2024-03-02T07:27:09;6.80;99.90
58582;DHT22;44361;51.476;5.700;2024-03-02T07:29:35;7.00;99.90
58582;DHT22;44361;51.476;5.700;2024-03-02T07:32:00;7.20;99.90
58582;DHT22;44361;51.476;5.700;2024-03-02T07:34:26;7.40;99.90
58582;DHT22;44361;51.476;5.700;2024-03-02T07:36:52;7.60;99.90
58582;DHT22;44361;51.476;5.700;2024-03-02T07:39:17;7.80;99.90
58582;DHT22;44361;51.476;5.700;2024-03-02T07:41:45;7.90;99.90
58582;DHT22;44361;51.476;5.700;2024-03-02T07:44:11;8.10;99.90
58582;DHT22;44361;51.476;5.700;2024-03-02T07:46:40;8.20;99.90
58582;DHT22;44361;51.476;5.700;2024-03-02T07:49:06;8.30;99.90
58582;DHT22;44361;51.476;5.700;2024-03-02T07:51:31;8.40;99.90
58582;DHT22;44361;51.476;5.700;2024-03-02T07:53:57;8.30;99.90
58582;DHT22;44361;51.476;5.700;2024-03-02T07:56:22;8.40;99.90
58582;DHT22;44361;51.476;5.700;2024-03-02T07:58:48;8.40;99.90
58582;DHT22;44361;51.476;5.700;2024-03-02T08:01:14;8.40;99.90
58582;DHT22;44361;51.476;5.700;2024-03-02T08:03:40;8.30;99.90
58582;DHT22;44361;51.476;5.700;2024-03-02T08:06:06;8.30;99.90
58582;DHT22;44361;51.476;5.700;2024-03-02T08:08:32;8.30;99.90
58582;DHT22;44361;51.476;5.700;2024-03-02T08:10:57;8.20;99.90
58582;DHT22;44361;51.476;5.700;2024-03-02T08:13:23;8.20;99.90
58582;DHT22;44361;51.476;5.700;2024-03-02T08:15:49;8.20;99.90
58582;DHT22;44361;51.476;5.700;2024-03-02T08:18:14;8.10;99.90
58582;DHT22;44361;51.476;5.700;2024-03-02T08:20:40;8.10;99.90
58582;DHT22;44361;51.476;5.700;2024-03-02T08:23:06;8.10;99.90
58582;DHT22;44361;51.476;5.700;2024-03-02T08:25:33;8.10;99.90
58582;DHT22;44361;51.476;5.700;2024-03-02T08:27:59;8.10;99.90
58582;DHT22;44361;51.476;5.700;2024-03-02T08:30:24;8.10;99.90
58582;DHT22;44361;51.476;5.700;2024-03-02T08:32:50;8.20;99.90
58582;DHT22;44361;51.476;5.700;2024-03-02T08:35:15;8.20;99.90
58582;DHT22;44361;51.476;5.700;2024-03-02T08:37:42;8.20;99.90
58582;DHT22;44361;51.476;5.700;2024-03-02T08:40:09;8.20;99.90
58582;DHT22;44361;51.476;5.700;2024-03-02T08:42:35;8.20;99.90
58582;DHT22;44361;51.476;5.700;2024-03-02T08:45:00;8.30;99.90
58582;DHT22;44361;51.476;5.700;2024-03-02T08:47:27;8.40;99.90
58582;DHT22;44361;51.476;5.700;2024-03-02T08:49:53;8.50;99.90
58582;DHT22;44361;51.476;5.700;2024-03-02T08:52:18;8.50;99.90
58582;DHT22;44361;51.476;5.700;2024-03-02T08:54:44;8.60;99.90
58582;DHT22;44361;51.476;5.700;2024-03-02T08:57:09;8.60;99.90
58582;DHT22;44361;51.476;5.700;2024-03-02T08:59:35;8.60;99.90
58582;DHT22;44361;51.476;5.700;2024-03-02T09:02:01;8.70;99.90
58582;DHT22;44361;51.476;5.700;2024-03-02T09:04:27;8.70;99.90
58582;DHT22;44361;51.476;5.700;2024-03-02T09:06:53;8.80;99.90
58582;DHT22;44361;51.476;5.700;2024-03-02T09:09:18;8.90;99.90
58582;DHT22;44361;51.476;5.700;2024-03-02T09:11:46;9.00;99.90
58582;DHT22;44361;51.476;5.700;2024-03-02T09:14:11;9.10;99.90
58582;DHT22;44361;51.476;5.700;2024-03-02T09:16:37;9.20;99.90
58582;DHT22;44361;51.476;5.700;2024-03-02T09:19:03;9.30;99.90
58582;DHT22;44361;51.476;5.700;2024-03-02T09:21:29;9.40;99.90
58582;DHT22;44361;51.476;5.700;2024-03-02T09:23:55;9.40;99.90
58582;DHT22;44361;51.476;5.700;2024-03-02T09:26:22;9.40;99.70
58582;DHT22;44361;51.476;5.700;2024-03-02T09:28:47;9.50;99.90
58582;DHT22;44361;51.476;5.700;2024-03-02T09:31:13;9.60;99.50
58582;DHT22;44361;51.476;5.700;2024-03-02T09:33:39;9.70;99.10
58582;DHT22;44361;51.476;5.700;2024-03-02T09:36:05;9.70;99.40
58582;DHT22;44361;51.476;5.700;2024-03-02T09:38:33;9.60;98.90
58582;DHT22;44361;51.476;5.700;2024-03-02T09:41:00;9.70;98.60
58582;DHT22;44361;51.476;5.700;2024-03-02T09:43:26;9.70;98.00
58582;DHT22;44361;51.476;5.700;2024-03-02T09:45:52;9.80;98.30
58582;DHT22;44361;51.476;5.700;2024-03-02T09:48:18;9.90;98.30
58582;DHT22;44361;51.476;5.700;2024-03-02T09:50:46;10.00;98.20
58582;DHT22;44361;51.476;5.700;2024-03-02T09:53:12;10.00;97.90
58582;DHT22;44361;51.476;5.700;2024-03-02T09:55:39;10.10;97.90
58582;DHT22;44361;51.476;5.700;2024-03-02T09:58:09;10.20;97.60
58582;DHT22;44361;51.476;5.700;2024-03-02T10:00:34;10.20;97.30
58582;DHT22;44361;51.476;5.700;2024-03-02T10:03:00;10.20;97.10
58582;DHT22;44361;51.476;5.700;2024-03-02T10:05:26;10.30;97.50
58582;DHT22;44361;51.476;5.700;2024-03-02T10:08:01;10.30;97.00
58582;DHT22;44361;51.476;5.700;2024-03-02T10:10:38;10.40;96.50
58582;DHT22;44361;51.476;5.700;2024-03-02T10:13:09;10.50;97.00
58582;DHT22;44361;51.476;5.700;2024-03-02T10:15:36;10.60;97.30
58582;DHT22;44361;51.476;5.700;2024-03-02T10:18:11;10.60;96.20
58582;DHT22;44361;51.476;5.700;2024-03-02T10:20:38;10.60;96.20
58582;DHT22;44361;51.476;5.700;2024-03-02T10:23:14;10.50;96.00
58582;DHT22;44361;51.476;5.700;2024-03-02T10:25:41;10.60;96.60
58582;DHT22;44361;51.476;5.700;2024-03-02T10:28:06;10.60;95.90
58582;DHT22;44361;51.476;5.700;2024-03-02T10:30:33;10.60;95.80
58582;DHT22;44361;51.476;5.700;2024-03-02T10:33:01;10.70;96.10
58582;DHT22;44361;51.476;5.700;2024-03-02T10:35:27;10.70;95.40
58582;DHT22;44361;51.476;5.700;2024-03-02T10:37:53;10.80;95.90
58582;DHT22;44361;51.476;5.700;2024-03-02T10:40:21;10.80;95.20
58582;DHT22;44361;51.476;5.700;2024-03-02T10:42:48;10.90;95.50
58582;DHT22;44361;51.476;5.700;2024-03-02T10:45:16;10.90;95.70
58582;DHT22;44361;51.476;5.700;2024-03-02T10:47:42;11.10;95.50
58582;DHT22;44361;51.476;5.700;2024-03-02T10:50:09;11.10;95.50
58582;DHT22;44361;51.476;5.700;2024-03-02T10:52:35;11.00;94.70
58582;DHT22;44361;51.476;5.700;2024-03-02T10:55:01;11.10;94.50
58582;DHT22;44361;51.476;5.700;2024-03-02T10:57:27;11.10;94.70
58582;DHT22;44361;51.476;5.700;2024-03-02T11:00:02;11.20;94.30
58582;DHT22;44361;51.476;5.700;2024-03-02T11:02:30;11.30;94.20
58582;DHT22;44361;51.476;5.700;2024-03-02T11:04:59;11.30;93.60
58582;DHT22;44361;51.476;5.700;2024-03-02T11:07:27;11.30;93.50
58582;DHT22;44361;51.476;5.700;2024-03-02T11:10:01;11.40;93.50
58582;DHT22;44361;51.476;5.700;2024-03-02T11:12:39;11.50;93.40
58582;DHT22;44361;51.476;5.700;2024-03-02T11:15:11;11.50;93.70
58582;DHT22;44361;51.476;5.700;2024-03-02T11:17:43;11.50;93.50
58582;DHT22;44361;51.476;5.700;2024-03-02T11:20:09;11.70;93.40
58582;DHT22;44361;51.476;5.700;2024-03-02T11:22:36;11.70;92.60
58582;DHT22;44361;51.476;5.700;2024-03-02T11:25:02;11.70;92.70
58582;DHT22;44361;51.476;5.700;2024-03-02T11:32:57;12.00;92.30
58582;DHT22;44361;51.476;5.700;2024-03-02T11:35:29;12.00;92.70
58582;DHT22;44361;51.476;5.700;2024-03-02T11:37:55;12.10;92.80
58582;DHT22;44361;51.476;5.700;2024-03-02T11:40:25;12.10;92.20
58582;DHT22;44361;51.476;5.700;2024-03-02T11:42:50;12.10;92.40
58582;DHT22;44361;51.476;5.700;2024-03-02T11:45:17;12.20;93.10
58582;DHT22;44361;51.476;5.700;2024-03-02T11:47:50;12.20;92.10
58582;DHT22;44361;51.476;5.700;2024-03-02T11:50:15;12.20;92.30
58582;DHT22;44361;51.476;5.700;2024-03-02T11:52:53;12.10;91.80
58582;DHT22;44361;51.476;5.700;2024-03-02T11:55:19;12.20;92.00
58582;DHT22;44361;51.476;5.700;2024-03-02T11:57:46;12.10;91.90
58582;DHT22;44361;51.476;5.700;2024-03-02T12:00:19;12.10;91.50
58582;DHT22;44361;51.476;5.700;2024-03-02T12:03:07;12.30;92.20
58582;DHT22;44361;51.476;5.700;2024-03-02T12:05:32;12.50;91.60
58582;DHT22;44361;51.476;5.700;2024-03-02T12:07:59;12.40;90.70
58582;DHT22;44361;51.476;5.700;2024-03-02T12:10:26;12.40;90.30
58582;DHT22;44361;51.476;5.700;2024-03-02T12:12:56;12.30;90.60
58582;DHT22;44361;51.476;5.700;2024-03-02T12:15:26;12.50;90.40
58582;DHT22;44361;51.476;5.700;2024-03-02T12:17:56;12.60;90.50
58582;DHT22;44361;51.476;5.700;2024-03-02T12:20:23;12.60;88.90
58582;DHT22;44361;51.476;5.700;2024-03-02T12:22:51;12.80;89.40
58582;DHT22;44361;51.476;5.700;2024-03-02T12:25:18;12.80;89.70
58582;DHT22;44361;51.476;5.700;2024-03-02T12:27:45;12.70;89.30
58582;DHT22;44361;51.476;5.700;2024-03-02T12:30:11;12.60;90.00
58582;DHT22;44361;51.476;5.700;2024-03-02T12:32:40;12.70;90.40
58582;DHT22;44361;51.476;5.700;2024-03-02T12:35:06;12.80;90.60
58582;DHT22;44361;51.476;5.700;2024-03-02T12:37:31;12.80;88.40
58582;DHT22;44361;51.476;5.700;2024-03-02T12:39:57;12.90;88.80
58582;DHT22;44361;51.476;5.700;2024-03-02T12:42:24;13.10;88.70
58582;DHT22;44361;51.476;5.700;2024-03-02T12:44:52;13.30;89.50
58582;DHT22;44361;51.476;5.700;2024-03-02T12:47:19;13.20;87.70
58582;DHT22;44361;51.476;5.700;2024-03-02T12:49:45;13.40;88.50
58582;DHT22;44361;51.476;5.700;2024-03-02T12:52:15;13.60;88.30
58582;DHT22;44361;51.476;5.700;2024-03-02T12:54:41;13.40;85.40
58582;DHT22;44361;51.476;5.700;2024-03-02T12:57:06;13.30;86.00
58582;DHT22;44361;51.476;5.700;2024-03-02T12:59:32;13.50;88.70
58582;DHT22;44361;51.476;5.700;2024-03-02T13:01:58;13.50;86.70
58582;DHT22;44361;51.476;5.700;2024-03-02T13:04:25;13.50;86.00
58582;DHT22;44361;51.476;5.700;2024-03-02T13:06:52;13.60;87.50
58582;DHT22;44361;51.476;5.700;2024-03-02T13:09:18;13.80;85.70
58582;DHT22;44361;51.476;5.700;2024-03-02T13:11:44;13.90;85.70
58582;DHT22;44361;51.476;5.700;2024-03-02T13:14:13;14.00;85.10
58582;DHT22;44361;51.476;5.700;2024-03-02T13:16:39;13.90;84.20
58582;DHT22;44361;51.476;5.700;2024-03-02T13:19:13;14.10;84.50
58582;DHT22;44361;51.476;5.700;2024-03-02T13:21:39;14.10;83.80
58582;DHT22;44361;51.476;5.700;2024-03-02T13:24:05;14.00;83.80
58582;DHT22;44361;51.476;5.700;2024-03-02T13:26:31;14.00;83.50
58582;DHT22;44361;51.476;5.700;2024-03-02T13:28:57;13.80;83.70
58582;DHT22;44361;51.476;5.700;2024-03-02T13:31:22;13.80;85.20
58582;DHT22;44361;51.476;5.700;2024-03-02T13:33:48;13.80;84.80
58582;DHT22;44361;51.476;5.700;2024-03-02T13:36:13;13.80;84.00
58582;DHT22;44361;51.476;5.700;2024-03-02T13:38:39;13.90;85.00
58582;DHT22;44361;51.476;5.700;2024-03-02T13:41:05;14.00;84.70
58582;DHT22;44361;51.476;5.700;2024-03-02T13:43:30;14.20;84.60
58582;DHT22;44361;51.476;5.700;2024-03-02T13:46:01;14.30;83.30
58582;DHT22;44361;51.476;5.700;2024-03-02T13:48:26;14.40;82.70
58582;DHT22;44361;51.476;5.700;2024-03-02T13:50:53;14.10;81.80
58582;DHT22;44361;51.476;5.700;2024-03-02T13:53:19;13.90;81.50
58582;DHT22;44361;51.476;5.700;2024-03-02T13:55:45;13.70;82.10
58582;DHT22;44361;51.476;5.700;2024-03-02T13:58:11;13.60;81.80
58582;DHT22;44361;51.476;5.700;2024-03-02T14:00:37;13.30;83.10
58582;DHT22;44361;51.476;5.700;2024-03-02T14:03:04;13.30;83.60
58582;DHT22;44361;51.476;5.700;2024-03-02T14:05:31;13.60;84.30
58582;DHT22;44361;51.476;5.700;2024-03-02T14:07:57;13.70;83.80
58582;DHT22;44361;51.476;5.700;2024-03-02T14:10:22;13.60;83.50
58582;DHT22;44361;51.476;5.700;2024-03-02T14:12:48;13.60;84.70
58582;DHT22;44361;51.476;5.700;2024-03-02T14:15:14;13.60;84.00
58582;DHT22;44361;51.476;5.700;2024-03-02T14:17:40;13.80;83.80
58582;DHT22;44361;51.476;5.700;2024-03-02T14:20:06;13.90;82.60
58582;DHT22;44361;51.476;5.700;2024-03-02T14:22:32;13.80;83.70
58582;DHT22;44361;51.476;5.700;2024-03-02T14:24:59;13.90;83.50
58582;DHT22;44361;51.476;5.700;2024-03-02T14:27:25;14.10;83.80
58582;DHT22;44361;51.476;5.700;2024-03-02T14:29:51;14.20;83.50
58582;DHT22;44361;51.476;5.700;2024-03-02T14:32:16;14.30;83.10
58582;DHT22;44361;51.476;5.700;2024-03-02T14:34:42;14.30;82.10
58582;DHT22;44361;51.476;5.700;2024-03-02T14:37:07;14.20;82.60
58582;DHT22;44361;51.476;5.700;2024-03-02T14:39:33;14.10;83.50
58582;DHT22;44361;51.476;5.700;2024-03-02T14:42:00;14.00;84.10
58582;DHT22;44361;51.476;5.700;2024-03-02T14:44:26;14.10;84.30
58582;DHT22;44361;51.476;5.700;2024-03-02T14:46:52;13.90;83.70
58582;DHT22;44361;51.476;5.700;2024-03-02T14:49:18;13.90;84.50
58582;DHT22;44361;51.476;5.700;2024-03-02T14:51:44;13.90;84.80
58582;DHT22;44361;51.476;5.700;2024-03-02T14:54:09;13.80;84.30
58582;DHT22;44361;51.476;5.700;2024-03-02T14:56:35;13.70;84.20
58582;DHT22;44361;51.476;5.700;2024-03-02T14:59:00;13.60;85.00
58582;DHT22;44361;51.476;5.700;2024-03-02T15:01:26;13.60;85.60
58582;DHT22;44361;51.476;5.700;2024-03-02T15:03:51;13.70;85.70
58582;DHT22;44361;51.476;5.700;2024-03-02T15:06:17;13.60;84.70
58582;DHT22;44361;51.476;5.700;2024-03-02T15:08:43;13.60;86.00
58582;DHT22;44361;51.476;5.700;2024-03-02T15:11:12;13.50;85.90
58582;DHT22;44361;51.476;5.700;2024-03-02T15:13:37;13.50;86.90
58582;DHT22;44361;51.476;5.700;2024-03-02T15:16:03;13.40;86.70
58582;DHT22;44361;51.476;5.700;2024-03-02T15:18:29;13.40;87.10
58582;DHT22;44361;51.476;5.700;2024-03-02T15:20:54;13.50;88.20
58582;DHT22;44361;51.476;5.700;2024-03-02T15:23:20;13.50;87.40
58582;DHT22;44361;51.476;5.700;2024-03-02T15:25:45;13.50;87.20
58582;DHT22;44361;51.476;5.700;2024-03-02T15:28:11;13.50;88.20
58582;DHT22;44361;51.476;5.700;2024-03-02T15:30:37;13.70;88.20
58582;DHT22;44361;51.476;5.700;2024-03-02T15:33:02;13.80;86.80
58582;DHT22;44361;51.476;5.700;2024-03-02T15:35:29;13.80;86.80
58582;DHT22;44361;51.476;5.700;2024-03-02T15:37:54;13.70;86.40
58582;DHT22;44361;51.476;5.700;2024-03-02T15:40:20;13.70;86.20
58582;DHT22;44361;51.476;5.700;2024-03-02T15:42:45;13.70;85.80
58582;DHT22;44361;51.476;5.700;2024-03-02T15:45:11;13.80;86.40